sensor_id;sensor_type;location;lat;lon;timestamp;temperature;humidity
3226;DHT22;1625;49.884;8.666;2023-02-01T04:48:26;6.20;99.90
3226;DHT22;1625;49.884;8.666;2023-02-01T04:50:52;6.20;99.90
3226;DHT22;1625;49.884;8.666;2023-02-01T04:53:18;6.30;99.90
3226;DHT22;1625;49.884;8.666;2023-02-01T04:55:44;6.30;99.90
3226;DHT22;1625;49.884;8.666;2023-02-01T04:58:10;6.30;99.90
3226;DHT22;1625;49.884;8.666;2023-02-01T05:00:36;6.20;99.90
3226;DHT22;1625;49.884;8.666;2023-02-01T05:03:03;6.20;99.90
3226;DHT22;1625;49.884;8.666;2023-02-01T05:05:28;6.20;99.90
3226;DHT22;1625;49.884;8.666;2023-02-01T05:07:54;6.30;99.90
3226;DHT22;1625;49.884;8.666;2023-02-01T05:10:20;6.30;99.90
3226;DHT22;1625;49.884;8.666;2023-02-01T05:12:46;6.30;99.90
3226;DHT22;1625;49.884;8.666;2023-02-01T05:15:30;6.30;99.90
3226;DHT22;1625;49.884;8.666;2023-02-01T05:17:57;6.30;99.90
3226;DHT22;1625;49.884;8.666;2023-02-01T05:20:22;6.30;99.90
3226;DHT22;1625;49.884;8.666;2023-02-01T05:22:48;6.30;99.90
3226;DHT22;1625;49.884;8.666;2023-02-01T05:25:14;6.20;99.90
3226;DHT22;1625;49.884;8.666;2023-02-01T05:27:39;6.20;99.90
3226;DHT22;1625;49.884;8.666;2023-02-01T05:30:06;6.20;99.90
3226;DHT22;1625;49.884;8.666;2023-02-01T05:32:31;6.20;99.90
3226;DHT22;1625;49.884;8.666;2023-02-01T05:34:57;6.20;99.90
3226;DHT22;1625;49.884;8.666;2023-02-01T05:37:22;6.20;99.90
3226;DHT22;1625;49.884;8.666;2023-02-01T05:39:48;6.20;99.90
3226;DHT22;1625;49.884;8.666;2023-02-01T05:42:14;6.30;99.90
3226;DHT22;1625;49.884;8.666;2023-02-01T05:44:39;6.20;99.90
3226;DHT22;1625;49.884;8.666;2023-02-01T05:47:05;6.20;99.90
3226;DHT22;1625;49.884;8.666;2023-02-01T05:49:30;6.20;99.90
3226;DHT22;1625;49.884;8.666;2023-02-01T05:51:56;6.20;99.90
3226;DHT22;1625;49.884;8.666;2023-02-01T05:54:21;6.40;99.90
3226;DHT22;1625;49.884;8.666;2023-02-01T05:56:47;6.50;99.90
3226;DHT22;1625;49.884;8.666;2023-02-01T05:59:14;6.60;99.90
3226;DHT22;1625;49.884;8.666;2023-02-01T06:01:39;6.70;99.90
3226;DHT22;1625;49.884;8.666;2023-02-01T06:04:05;6.60;99.90
3226;DHT22;1625;49.884;8.666;2023-02-01T06:06:30;6.60;99.90
3226;DHT22;1625;49.884;8.666;2023-02-01T06:08:56;6.50;99.90
3226;DHT22;1625;49.884;8.666;2023-02-01T06:11:21;6.50;99.90
3226;DHT22;1625;49.884;8.666;2023-02-01T06:13:47;6.50;99.90
3226;DHT22;1625;49.884;8.666;2023-02-01T06:16:12;6.40;99.90
3226;DHT22;1625;49.884;8.666;2023-02-01T06:18:40;6.30;99.90
3226;DHT22;1625;49.884;8.666;2023-02-01T06:21:07;6.30;99.90
3226;DHT22;1625;49.884;8.666;2023-02-01T06:23:33;6.30;99.90
3226;DHT22;1625;49.884;8.666;2023-02-01T06:26:04;6.40;99.90
3226;DHT22;1625;49.884;8.666;2023-02-01T06:28:31;6.30;99.90
3226;DHT22;1625;49.884;8.666;2023-02-01T06:30:56;6.40;99.90
3226;DHT22;1625;49.884;8.666;2023-02-01T06:33:26;6.40;99.90
3226;DHT22;1625;49.884;8.666;2023-02-01T06:35:58;6.30;99.90
3226;DHT22;1625;49.884;8.666;2023-02-01T06:38:24;6.30;99.90
3226;DHT22;1625;49.884;8.666;2023-02-01T06:40:56;6.20;99.90
3226;DHT22;1625;49.884;8.666;2023-02-01T06:43:22;6.30;99.90
3226;DHT22;1625;49.884;8.666;2023-02-01T06:46:23;6.20;99.90
3226;DHT22;1625;49.884;8.666;2023-02-01T06:49:18;6.20;99.90
3226;DHT22;1625;49.884;8.666;2023-02-01T07:05:34;5.80;99.90
3226;DHT22;1625;49.884;8.666;2023-02-01T07:08:22;5.70;99.90
3226;DHT22;1625;49.884;8.666;2023-02-01T07:11:11;5.70;99.90
3226;DHT22;1625;49.884;8.666;2023-02-01T07:13:38;5.60;99.90
3226;DHT22;1625;49.884;8.666;2023-02-01T07:16:06;5.60;99.90
3226;DHT22;1625;49.884;8.666;2023-02-01T07:18:45;5.70;99.90
3226;DHT22;1625;49.884;8.666;2023-02-01T07:21:13;5.70;99.90
3226;DHT22;1625;49.884;8.666;2023-02-01T07:23:39;5.70;99.90
3226;DHT22;1625;49.884;8.666;2023-02-01T07:26:06;5.60;99.90
3226;DHT22;1625;49.884;8.666;2023-02-01T07:28:35;5.60;99.90
3226;DHT22;1625;49.884;8.666;2023-02-01T07:31:05;5.70;99.90
3226;DHT22;1625;49.884;8.666;2023-02-01T07:33:32;5.60;99.90
3226;DHT22;1625;49.884;8.666;2023-02-01T07:35:57;5.70;99.90
3226;DHT22;1625;49.884;8.666;2023-02-01T07:38:25;5.70;99.90
3226;DHT22;1625;49.884;8.666;2023-02-01T07:40:50;5.70;99.90
3226;DHT22;1625;49.884;8.666;2023-02-01T07:43:16;5.70;99.90
3226;DHT22;1625;49.884;8.666;2023-02-01T07:45:41;5.70;99.90
3226;DHT22;1625;49.884;8.666;2023-02-01T07:48:07;5.70;99.90
3226;DHT22;1625;49.884;8.666;2023-02-01T07:50:33;5.70;99.90
3226;DHT22;1625;49.884;8.666;2023-02-01T07:52:59;5.70;99.90
3226;DHT22;1625;49.884;8.666;2023-02-01T07:55:26;5.80;99.90
3226;DHT22;1625;49.884;8.666;2023-02-01T07:57:51;5.80;99.90
3226;DHT22;1625;49.884;8.666;2023-02-01T08:00:18;5.80;99.90
3226;DHT22;1625;49.884;8.666;2023-02-01T08:03:03;5.80;99.90
3226;DHT22;1625;49.884;8.666;2023-02-01T08:05:29;5.80;99.90
3226;DHT22;1625;49.884;8.666;2023-02-01T08:07:55;5.90;99.90
3226;DHT22;1625;49.884;8.666;2023-02-01T08:10:20;5.90;99.90
3226;DHT22;1625;49.884;8.666;2023-02-01T08:12:46;5.90;99.90
3226;DHT22;1625;49.884;8.666;2023-02-01T08:15:16;6.00;99.90
3226;DHT22;1625;49.884;8.666;2023-02-01T08:17:49;6.00;99.90
3226;DHT22;1625;49.884;8.666;2023-02-01T08:20:15;6.00;99.90
3226;DHT22;1625;49.884;8.666;2023-02-01T08:22:41;6.10;99.90
3226;DHT22;1625;49.884;8.666;2023-02-01T08:25:07;6.00;99.90
3226;DHT22;1625;49.884;8.666;2023-02-01T08:27:33;6.00;99.90
3226;DHT22;1625;49.884;8.666;2023-02-01T08:29:59;6.10;99.90
3226;DHT22;1625;49.884;8.666;2023-02-01T08:32:26;6.20;99.90
3226;DHT22;1625;49.884;8.666;2023-02-01T08:34:51;6.20;99.90
3226;DHT22;1625;49.884;8.666;2023-02-01T08:37:17;6.10;99.90
3226;DHT22;1625;49.884;8.666;2023-02-01T08:39:43;6.20;99.90
3226;DHT22;1625;49.884;8.666;2023-02-01T08:42:10;6.30;99.90
3226;DHT22;1625;49.884;8.666;2023-02-01T08:45:07;6.40;99.90
3226;DHT22;1625;49.884;8.666;2023-02-01T08:47:35;6.60;99.90
3226;DHT22;1625;49.884;8.666;2023-02-01T08:50:01;6.70;99.90
3226;DHT22;1625;49.884;8.666;2023-02-01T08:52:26;6.80;99.90
3226;DHT22;1625;49.884;8.666;2023-02-01T08:54:52;6.90;99.90
3226;DHT22;1625;49.884;8.666;2023-02-01T08:57:17;6.80;99.90
3226;DHT22;1625;49.884;8.666;2023-02-01T08:59:43;6.80;99.90
3226;DHT22;1625;49.884;8.666;2023-02-01T09:02:15;6.80;99.90
3226;DHT22;1625;49.884;8.666;2023-02-01T09:04:43;6.70;99.90
3226;DHT22;1625;49.884;8.666;2023-02-01T09:07:09;6.70;99.90
3226;DHT22;1625;49.884;8.666;2023-02-01T09:09:36;6.90;99.90
3226;DHT22;1625;49.884;8.666;2023-02-01T09:12:09;7.00;99.90
3226;DHT22;1625;49.884;8.666;2023-02-01T09:14:57;7.10;99.90
3226;DHT22;1625;49.884;8.666;2023-02-01T09:17:29;7.30;99.90
3226;DHT22;1625;49.884;8.666;2023-02-01T09:26:50;7.30;99.90
3226;DHT22;1625;49.884;8.666;2023-02-01T09:36:32;7.20;99.90
3226;DHT22;1625;49.884;8.666;2023-02-01T09:39:01;7.20;99.90
3226;DHT22;1625;49.884;8.666;2023-02-01T09:44:37;7.10;99.90
3226;DHT22;1625;49.884;8.666;2023-02-01T09:47:24;7.00;99.90
3226;DHT22;1625;49.884;8.666;2023-02-01T09:50:11;7.00;99.90
3226;DHT22;1625;49.884;8.666;2023-02-01T09:55:37;7.00;99.90
3226;DHT22;1625;49.884;8.666;2023-02-01T09:58:25;6.90;99.90
3226;DHT22;1625;49.884;8.666;2023-02-01T10:01:24;6.90;99.90
3226;DHT22;1625;49.884;8.666;2023-02-01T10:04:05;6.90;99.90
3226;DHT22;1625;49.884;8.666;2023-02-01T10:12:33;7.00;99.90
3226;DHT22;1625;49.884;8.666;2023-02-01T10:20:59;7.20;99.90
3226;DHT22;1625;49.884;8.666;2023-02-01T10:26:19;7.30;99.90
3226;DHT22;1625;49.884;8.666;2023-02-01T10:28:51;7.30;99.90
3226;DHT22;1625;49.884;8.666;2023-02-01T10:31:18;7.30;99.90
3226;DHT22;1625;49.884;8.666;2023-02-01T10:33:52;7.30;99.90
3226;DHT22;1625;49.884;8.666;2023-02-01T10:36:24;7.30;99.90
3226;DHT22;1625;49.884;8.666;2023-02-01T10:38:50;7.40;99.90
3226;DHT22;1625;49.884;8.666;2023-02-01T10:41:19;7.40;99.90
3226;DHT22;1625;49.884;8.666;2023-02-01T10:43:49;7.40;99.90
3226;DHT22;1625;49.884;8.666;2023-02-01T10:46:16;7.40;99.90
3226;DHT22;1625;49.884;8.666;2023-02-01T10:48:42;7.30;99.90
3226;DHT22;1625;49.884;8.666;2023-02-01T10:51:24;7.30;99.90
3226;DHT22;1625;49.884;8.666;2023-02-01T10:54:03;7.30;99.90
3226;DHT22;1625;49.884;8.666;2023-02-01T10:56:37;7.30;99.90
3226;DHT22;1625;49.884;8.666;2023-02-01T10:59:05;7.30;99.90
3226;DHT22;1625;49.884;8.666;2023-02-01T11:01:37;7.30;99.90
3226;DHT22;1625;49.884;8.666;2023-02-01T11:04:05;7.30;99.90
3226;DHT22;1625;49.884;8.666;2023-02-01T11:06:39;7.30;99.90
3226;DHT22;1625;49.884;8.666;2023-02-01T11:11:31;7.40;99.90
3226;DHT22;1625;49.884;8.666;2023-02-01T11:14:10;7.30;99.90
3226;DHT22;1625;49.884;8.666;2023-02-01T11:16:48;7.40;99.90
3226;DHT22;1625;49.884;8.666;2023-02-01T11:19:15;7.40;99.90
3226;DHT22;1625;49.884;8.666;2023-02-01T11:21:42;7.40;99.90
3226;DHT22;1625;49.884;8.666;2023-02-01T11:24:26;7.40;99.90
3226;DHT22;1625;49.884;8.666;2023-02-01T11:27:01;7.50;99.90
3226;DHT22;1625;49.884;8.666;2023-02-01T11:29:36;7.50;99.90
3226;DHT22;1625;49.884;8.666;2023-02-01T11:32:03;7.50;99.90
3226;DHT22;1625;49.884;8.666;2023-02-01T11:37:02;7.40;99.90
3226;DHT22;1625;49.884;8.666;2023-02-01T11:39:33;7.40;99.90
3226;DHT22;1625;49.884;8.666;2023-02-01T11:42:16;7.40;99.90
3226;DHT22;1625;49.884;8.666;2023-02-01T11:44:46;7.40;99.90
3226;DHT22;1625;49.884;8.666;2023-02-01T11:47:38;7.40;99.90
3226;DHT22;1625;49.884;8.666;2023-02-01T11:50:19;7.40;99.90
3226;DHT22;1625;49.884;8.666;2023-02-01T12:06:53;7.30;99.90
3226;DHT22;1625;49.884;8.666;2023-02-01T12:22:28;7.40;99.90
3226;DHT22;1625;49.884;8.666;2023-02-01T12:25:21;7.40;99.90
3226;DHT22;1625;49.884;8.666;2023-02-01T12:39:31;7.40;99.90
3226;DHT22;1625;49.884;8.666;2023-02-01T12:42:17;7.50;99.90
3226;DHT22;1625;49.884;8.666;2023-02-01T12:47:18;7.40;99.90
3226;DHT22;1625;49.884;8.666;2023-02-01T13:03:21;7.60;99.90
3226;DHT22;1625;49.884;8.666;2023-02-01T13:08:43;7.50;99.90
3226;DHT22;1625;49.884;8.666;2023-02-01T13:11:29;7.60;99.90
3226;DHT22;1625;49.884;8.666;2023-02-01T13:16:49;7.60;99.90
3226;DHT22;1625;49.884;8.666;2023-02-01T13:22:31;7.60;99.90
3226;DHT22;1625;49.884;8.666;2023-02-01T13:25:12;7.70;99.90
3226;DHT22;1625;49.884;8.666;2023-02-01T13:27:38;7.60;99.90
3226;DHT22;1625;49.884;8.666;2023-02-01T13:30:29;7.60;99.90
3226;DHT22;1625;49.884;8.666;2023-02-01T13:33:21;7.60;99.90
3226;DHT22;1625;49.884;8.666;2023-02-01T13:41:35;7.50;99.90
3226;DHT22;1625;49.884;8.666;2023-02-01T13:44:13;7.50;99.90
3226;DHT22;1625;49.884;8.666;2023-02-01T13:46:43;7.50;99.90
3226;DHT22;1625;49.884;8.666;2023-02-01T13:49:28;7.60;99.90
3226;DHT22;1625;49.884;8.666;2023-02-01T13:51:56;7.60;99.90
3226;DHT22;1625;49.884;8.666;2023-02-01T13:54:39;7.60;99.90
3226;DHT22;1625;49.884;8.666;2023-02-01T13:57:35;7.60;99.90
3226;DHT22;1625;49.884;8.666;2023-02-01T14:02:50;7.70;99.90
3226;DHT22;1625;49.884;8.666;2023-02-01T14:23:53;7.80;99.90
3226;DHT22;1625;49.884;8.666;2023-02-01T14:34:39;7.70;99.90
3226;DHT22;1625;49.884;8.666;2023-02-01T14:42:44;7.70;99.90
3226;DHT22;1625;49.884;8.666;2023-02-01T14:47:48;7.80;99.90
3226;DHT22;1625;49.884;8.666;2023-02-01T14:50:31;7.90;99.90
3226;DHT22;1625;49.884;8.666;2023-02-01T14:56:04;7.80;99.90
3226;DHT22;1625;49.884;8.666;2023-02-01T14:58:50;7.80;99.90
3226;DHT22;1625;49.884;8.666;2023-02-01T15:01:34;7.80;99.90
3226;DHT22;1625;49.884;8.666;2023-02-01T15:04:04;7.80;99.90
3226;DHT22;1625;49.884;8.666;2023-02-01T15:06:46;7.80;99.90
3226;DHT22;1625;49.884;8.666;2023-02-01T15:09:39;7.90;99.90
3226;DHT22;1625;49.884;8.666;2023-02-01T15:14:48;7.90;99.90
3226;DHT22;1625;49.884;8.666;2023-02-01T15:17:29;7.90;99.90
3226;DHT22;1625;49.884;8.666;2023-02-01T15:22:40;7.90;99.90
3226;DHT22;1625;49.884;8.666;2023-02-01T15:25:19;8.00;99.90
3226;DHT22;1625;49.884;8.666;2023-02-01T15:27:45;7.90;99.90
3226;DHT22;1625;49.884;8.666;2023-02-01T15:30:26;7.90;99.90
3226;DHT22;1625;49.884;8.666;2023-02-01T15:33:04;7.90;99.90
3226;DHT22;1625;49.884;8.666;2023-02-01T15:35:39;7.90;99.90
3226;DHT22;1625;49.884;8.666;2023-02-01T15:41:09;7.80;99.90
3226;DHT22;1625;49.884;8.666;2023-02-01T15:43:42;7.80;99.90
3226;DHT22;1625;49.884;8.666;2023-02-01T15:49:37;7.80;99.90
3226;DHT22;1625;49.884;8.666;2023-02-01T15:52:16;7.80;99.90
3226;DHT22;1625;49.884;8.666;2023-02-01T15:54:53;7.80;99.90
3226;DHT22;1625;49.884;8.666;2023-02-01T15:57:22;7.80;99.90
3226;DHT22;1625;49.884;8.666;2023-02-01T16:00:03;7.80;99.90
3226;DHT22;1625;49.884;8.666;2023-02-01T16:02:35;7.80;99.90
3226;DHT22;1625;49.884;8.666;2023-02-01T16:05:04;7.80;99.90
3226;DHT22;1625;49.884;8.666;2023-02-01T16:08:01;7.80;99.90
3226;DHT22;1625;49.884;8.666;2023-02-01T16:10:29;7.90;99.90
3226;DHT22;1625;49.884;8.666;2023-02-01T16:12:54;7.90;99.90
3226;DHT22;1625;49.884;8.666;2023-02-01T16:15:24;7.80;99.90
3226;DHT22;1625;49.884;8.666;2023-02-01T16:17:49;7.80;99.90
3226;DHT22;1625;49.884;8.666;2023-02-01T16:20:15;7.80;99.90
3226;DHT22;1625;49.884;8.666;2023-02-01T16:22:40;7.80;99.90
3226;DHT22;1625;49.884;8.666;2023-02-01T16:25:06;7.80;99.90
3226;DHT22;1625;49.884;8.666;2023-02-01T16:27:32;7.80;99.90
3226;DHT22;1625;49.884;8.666;2023-02-01T16:29:57;7.80;99.90
3226;DHT22;1625;49.884;8.666;2023-02-01T16:32:23;7.80;99.90
3226;DHT22;1625;49.884;8.666;2023-02-01T16:34:49;7.80;99.90
3226;DHT22;1625;49.884;8.666;2023-02-01T16:37:19;7.70;99.90
3226;DHT22;1625;49.884;8.666;2023-02-01T16:39:45;7.80;99.90
3226;DHT22;1625;49.884;8.666;2023-02-01T16:42:12;7.80;99.90
3226;DHT22;1625;49.884;8.666;2023-02-01T16:44:38;7.70;99.90
3226;DHT22;1625;49.884;8.666;2023-02-01T16:47:11;7.70;99.90
3226;DHT22;1625;49.884;8.666;2023-02-01T16:49:37;7.70;99.90
3226;DHT22;1625;49.884;8.666;2023-02-01T16:52:03;7.70;99.90
3226;DHT22;1625;49.884;8.666;2023-02-01T16:54:28;7.70;99.90
3226;DHT22;1625;49.884;8.666;2023-02-01T16:56:54;7.60;99.90
3226;DHT22;1625;49.884;8.666;2023-02-01T16:59:19;7.60;99.90
3226;DHT22;1625;49.884;8.666;2023-02-01T17:01:45;7.70;99.90
3226;DHT22;1625;49.884;8.666;2023-02-01T17:04:31;7.70;99.90
3226;DHT22;1625;49.884;8.666;2023-02-01T17:11:33;7.70;99.90
3226;DHT22;1625;49.884;8.666;2023-02-01T17:14:42;7.70;99.90
3226;DHT22;1625;49.884;8.666;2023-02-01T17:56:48;7.60;99.90
3226;DHT22;1625;49.884;8.666;2023-02-01T18:03:38;7.60;99.90
3226;DHT22;1625;49.884;8.666;2023-02-01T18:37:14;7.50;99.90
3226;DHT22;1625;49.884;8.666;2023-02-01T18:42:14;7.40;99.90
3226;DHT22;1625;49.884;8.666;2023-02-01T18:44:40;7.40;99.90
3226;DHT22;1625;49.884;8.666;2023-02-01T18:47:05;7.40;99.90
3226;DHT22;1625;49.884;8.666;2023-02-01T18:49:49;7.40;99.90
3226;DHT22;1625;49.884;8.666;2023-02-01T18:52:15;7.50;99.90
3226;DHT22;1625;49.884;8.666;2023-02-01T18:55:05;7.50;99.90
3226;DHT22;1625;49.884;8.666;2023-02-01T18:57:31;7.50;99.90
3226;DHT22;1625;49.884;8.666;2023-02-01T18:59:57;7.50;99.90
3226;DHT22;1625;49.884;8.666;2023-02-01T19:02:23;7.50;99.90
3226;DHT22;1625;49.884;8.666;2023-02-01T19:04:48;7.50;99.90
3226;DHT22;1625;49.884;8.666;2023-02-01T19:07:14;7.50;99.90
3226;DHT22;1625;49.884;8.666;2023-02-01T19:09:39;7.50;99.90
3226;DHT22;1625;49.884;8.666;2023-02-01T19:12:05;7.40;99.90
3226;DHT22;1625;49.884;8.666;2023-02-01T19:14:30;7.40;99.90
3226;DHT22;1625;49.884;8.666;2023-02-01T19:16:56;7.40;99.90
3226;DHT22;1625;49.884;8.666;2023-02-01T19:19:23;7.40;99.90
3226;DHT22;1625;49.884;8.666;2023-02-01T19:21:49;7.40;99.90
3226;DHT22;1625;49.884;8.666;2023-02-01T19:24:15;7.40;99.90
3226;DHT22;1625;49.884;8.666;2023-02-01T19:26:41;7.40;99.90
3226;DHT22;1625;49.884;8.666;2023-02-01T19:29:08;7.40;99.90
3226;DHT22;1625;49.884;8.666;2023-02-01T19:31:34;7.40;99.90
3226;DHT22;1625;49.884;8.666;2023-02-01T19:34:05;7.40;99.90
3226;DHT22;1625;49.884;8.666;2023-02-01T19:36:32;7.30;99.90
3226;DHT22;1625;49.884;8.666;2023-02-01T19:38:57;7.30;99.90
3226;DHT22;1625;49.884;8.666;2023-02-01T19:41:23;7.40;99.90
3226;DHT22;1625;49.884;8.666;2023-02-01T19:43:48;7.40;99.90
3226;DHT22;1625;49.884;8.666;2023-02-01T19:46:13;7.40;99.90
3226;DHT22;1625;49.884;8.666;2023-02-01T19:48:39;7.40;99.90
3226;DHT22;1625;49.884;8.666;2023-02-01T19:51:05;7.40;99.90
3226;DHT22;1625;49.884;8.666;2023-02-01T19:53:30;7.40;99.90
3226;DHT22;1625;49.884;8.666;2023-02-01T19:55:57;7.40;99.90
3226;DHT22;1625;49.884;8.666;2023-02-01T19:58:24;7.40;99.90
3226;DHT22;1625;49.884;8.666;2023-02-01T20:00:56;7.40;99.90
3226;DHT22;1625;49.884;8.666;2023-02-01T20:03:23;7.40;99.90
3226;DHT22;1625;49.884;8.666;2023-02-01T20:05:57;7.40;99.90
3226;DHT22;1625;49.884;8.666;2023-02-01T20:08:23;7.50;99.90
3226;DHT22;1625;49.884;8.666;2023-02-01T20:10:49;7.50;99.90
3226;DHT22;1625;49.884;8.666;2023-02-01T20:13:15;7.50;99.90
3226;DHT22;1625;49.884;8.666;2023-02-01T20:15:41;7.50;99.90
3226;DHT22;1625;49.884;8.666;2023-02-01T20:18:08;7.50;99.90
3226;DHT22;1625;49.884;8.666;2023-02-01T20:20:33;7.50;99.90
3226;DHT22;1625;49.884;8.666;2023-02-01T20:22:59;7.50;99.90
3226;DHT22;1625;49.884;8.666;2023-02-01T20:25:25;7.50;99.90
3226;DHT22;1625;49.884;8.666;2023-02-01T20:27:50;7.40;99.90
3226;DHT22;1625;49.884;8.666;2023-02-01T20:30:17;7.40;99.90
3226;DHT22;1625;49.884;8.666;2023-02-01T20:32:50;7.50;99.90
3226;DHT22;1625;49.884;8.666;2023-02-01T20:35:19;7.50;99.90
3226;DHT22;1625;49.884;8.666;2023-02-01T20:37:44;7.50;99.90
3226;DHT22;1625;49.884;8.666;2023-02-01T20:40:11;7.50;99.90
3226;DHT22;1625;49.884;8.666;2023-02-01T20:42:36;7.50;99.90
3226;DHT22;1625;49.884;8.666;2023-02-01T20:45:05;7.50;99.90
3226;DHT22;1625;49.884;8.666;2023-02-01T20:47:30;7.50;99.90
3226;DHT22;1625;49.884;8.666;2023-02-01T20:49:56;7.50;99.90
3226;DHT22;1625;49.884;8.666;2023-02-01T20:52:21;7.50;99.90
3226;DHT22;1625;49.884;8.666;2023-02-01T20:54:47;7.40;99.90
3226;DHT22;1625;49.884;8.666;2023-02-01T20:57:13;7.50;99.90
3226;DHT22;1625;49.884;8.666;2023-02-01T20:59:38;7.40;99.90
3226;DHT22;1625;49.884;8.666;2023-02-01T21:02:04;7.50;99.90
3226;DHT22;1625;49.884;8.666;2023-02-01T21:04:30;7.60;99.90
3226;DHT22;1625;49.884;8.666;2023-02-01T21:06:58;7.50;99.90
3226;DHT22;1625;49.884;8.666;2023-02-01T21:09:25;7.50;99.90
3226;DHT22;1625;49.884;8.666;2023-02-01T21:11:51;7.50;99.90
3226;DHT22;1625;49.884;8.666;2023-02-01T21:14:17;7.40;99.90
3226;DHT22;1625;49.884;8.666;2023-02-01T21:16:44;7.40;99.90
3226;DHT22;1625;49.884;8.666;2023-02-01T21:19:10;7.50;99.90
3226;DHT22;1625;49.884;8.666;2023-02-01T21:21:35;7.50;99.90
3226;DHT22;1625;49.884;8.666;2023-02-01T21:24:01;7.50;99.90
3226;DHT22;1625;49.884;8.666;2023-02-01T21:26:28;7.60;99.90
3226;DHT22;1625;49.884;8.666;2023-02-01T21:29:06;7.60;99.90
3226;DHT22;1625;49.884;8.666;2023-02-01T21:31:32;7.60;99.90
3226;DHT22;1625;49.884;8.666;2023-02-01T21:34:04;7.60;99.90
3226;DHT22;1625;49.884;8.666;2023-02-01T21:36:33;7.60;99.90
3226;DHT22;1625;49.884;8.666;2023-02-01T21:38:59;7.60;99.90
3226;DHT22;1625;49.884;8.666;2023-02-01T21:41:29;7.50;99.90
3226;DHT22;1625;49.884;8.666;2023-02-01T21:44:14;7.60;99.90
3226;DHT22;1625;49.884;8.666;2023-02-01T21:46:41;7.50;99.90
3226;DHT22;1625;49.884;8.666;2023-02-01T21:49:06;7.60;99.90
3226;DHT22;1625;49.884;8.666;2023-02-01T21:51:32;7.60;99.90
3226;DHT22;1625;49.884;8.666;2023-02-01T21:54:00;7.60;99.90
3226;DHT22;1625;49.884;8.666;2023-02-01T21:56:26;7.60;99.90
3226;DHT22;1625;49.884;8.666;2023-02-01T21:58:52;7.60;99.90
3226;DHT22;1625;49.884;8.666;2023-02-01T22:03:44;7.60;99.90
3226;DHT22;1625;49.884;8.666;2023-02-01T22:06:20;7.60;99.90
3226;DHT22;1625;49.884;8.666;2023-02-01T22:08:45;7.60;99.90
3226;DHT22;1625;49.884;8.666;2023-02-01T22:11:11;7.60;99.90
3226;DHT22;1625;49.884;8.666;2023-02-01T22:13:36;7.60;99.90
3226;DHT22;1625;49.884;8.666;2023-02-01T22:16:02;7.60;99.90
3226;DHT22;1625;49.884;8.666;2023-02-01T22:18:27;7.60;99.90
3226;DHT22;1625;49.884;8.666;2023-02-01T22:21:00;7.70;99.90
3226;DHT22;1625;49.884;8.666;2023-02-01T22:23:27;7.60;99.90
3226;DHT22;1625;49.884;8.666;2023-02-01T22:26:01;7.60;99.90
3226;DHT22;1625;49.884;8.666;2023-02-01T22:28:26;7.60;99.90
3226;DHT22;1625;49.884;8.666;2023-02-01T22:30:53;7.70;99.90
3226;DHT22;1625;49.884;8.666;2023-02-01T22:33:19;7.60;99.90
3226;DHT22;1625;49.884;8.666;2023-02-01T22:35:48;7.60;99.90
3226;DHT22;1625;49.884;8.666;2023-02-01T22:38:15;7.60;99.90
3226;DHT22;1625;49.884;8.666;2023-02-01T22:43:06;7.60;99.90
3226;DHT22;1625;49.884;8.666;2023-02-01T22:45:32;7.60;99.90
3226;DHT22;1625;49.884;8.666;2023-02-01T22:47:57;7.60;99.90
3226;DHT22;1625;49.884;8.666;2023-02-01T22:50:23;7.60;99.90
3226;DHT22;1625;49.884;8.666;2023-02-01T22:55:14;7.70;99.90
3226;DHT22;1625;49.884;8.666;2023-02-01T22:57:40;7.70;99.90
3226;DHT22;1625;49.884;8.666;2023-02-01T23:00:07;7.70;99.90
3226;DHT22;1625;49.884;8.666;2023-02-01T23:02:33;7.70;99.90
3226;DHT22;1625;49.884;8.666;2023-02-01T23:04:59;7.70;99.90
3226;DHT22;1625;49.884;8.666;2023-02-01T23:07:24;7.70;99.90
3226;DHT22;1625;49.884;8.666;2023-02-01T23:09:50;7.70;99.90
3226;DHT22;1625;49.884;8.666;2023-02-01T23:12:16;7.70;99.90
3226;DHT22;1625;49.884;8.666;2023-02-01T23:14:41;7.70;99.90
3226;DHT22;1625;49.884;8.666;2023-02-01T23:17:27;7.70;99.90
3226;DHT22;1625;49.884;8.666;2023-02-01T23:19:52;7.60;99.90
3226;DHT22;1625;49.884;8.666;2023-02-01T23:22:18;7.70;99.90
3226;DHT22;1625;49.884;8.666;2023-02-01T23:24:43;7.60;99.90
3226;DHT22;1625;49.884;8.666;2023-02-01T23:29:35;7.60;99.90
3226;DHT22;1625;49.884;8.666;2023-02-01T23:32:00;7.60;99.90
3226;DHT22;1625;49.884;8.666;2023-02-01T23:34:26;7.60;99.90
3226;DHT22;1625;49.884;8.666;2023-02-01T23:36:51;7.60;99.90
3226;DHT22;1625;49.884;8.666;2023-02-01T23:39:17;7.60;99.90
3226;DHT22;1625;49.884;8.666;2023-02-01T23:41:42;7.60;99.90
3226;DHT22;1625;49.884;8.666;2023-02-01T23:46:39;7.50;99.90
3226;DHT22;1625;49.884;8.666;2023-02-01T23:49:12;7.50;99.90
3226;DHT22;1625;49.884;8.666;2023-02-01T23:51:38;7.50;99.90
3226;DHT22;1625;49.884;8.666;2023-02-01T23:54:04;7.50;99.90
3226;DHT22;1625;49.884;8.666;2023-02-01T23:56:38;7.50;99.90
3226;DHT22;1625;49.884;8.666;2023-02-01T23:59:07;7.50;99.90
